Overview Statistics Trail Chart Weather Telemetry Raw packets
 

This is the latest recevied weather packets stored in our database for station/object CW79215. If no packets are shown the sender has not sent any weather packets the latest 10 day(s).

<< 34 35 36 37 38 39 >>
Time Temp. Humidity Pressure Rain* Wind** Luminosity Snow
1787897122 21.11° C 78% 1021.5 hPa - - - -
1787896222 20.56° C 80% 1021.4 hPa - - - -
1787895322 20.56° C 78% 1021.8 hPa - - - -
1787894422 20.56° C 80% 1022.1 hPa - - - -
1787893522 20° C 82% 1022.5 hPa - - - -
1787892622 20° C 83% 1022.4 hPa - - - -
1787891722 20.56° C 77% 1021.6 hPa - - - -
1787890822 21.67° C 68% 1021.4 hPa - - - -
1787889921 21.11° C 66% 1021.3 hPa - - - -
1787889021 21.67° C 66% 1021.6 hPa - - - -
1787888121 21.67° C 65% 1021.6 hPa - - - -
1787887221 21.67° C 65% 1022 hPa - - - -
1787886321 21.67° C 65% 1021.4 hPa - - - -
1787885420 20.56° C 68% 1021.5 hPa - - - -
1787884524 21.11° C 67% 1021.1 hPa - - - -
1787883624 21.11° C 67% 1021.3 hPa - - - -
1787882724 21.11° C 67% 1021.1 hPa - - - -
1787881824 21.11° C 66% 1021 hPa - - - -
1787880924 21.67° C 65% 1021 hPa - - - -
1787880023 21.11° C 65% 1021.3 hPa - - - -
1787879122 21.67° C 65% 1021.3 hPa - - - -
1787878222 21.67° C 64% 1021.4 hPa - - - -
1787877322 21.67° C 64% 1021.2 hPa - - - -
1787876422 21.67° C 62% 1021.2 hPa - - - -
1787875522 21.67° C 64% 1021.3 hPa - - - -

* Rain since midnight (hover to see other rain measurements)
** Current wind speed in m/s (hover to see current wind gust speed)